sensor_id;sensor_type;location;lat;lon;timestamp;pressure;altitude;pressure_sealevel;temperature;humidity
77005;BME280;67261;53.132;18.006;2023-09-08T00:02:27;102054.98;;;17.90;74.39
77005;BME280;67261;53.132;18.006;2023-09-08T00:04:55;102059.17;;;17.87;74.35
77005;BME280;67261;53.132;18.006;2023-09-08T00:07:23;102054.73;;;17.86;74.49
77005;BME280;67261;53.132;18.006;2023-09-08T00:09:51;102055.88;;;17.85;74.54
77005;BME280;67261;53.132;18.006;2023-09-08T00:12:18;102052.87;;;17.81;74.85
77005;BME280;67261;53.132;18.006;2023-09-08T00:14:45;102055.18;;;17.81;74.75
77005;BME280;67261;53.132;18.006;2023-09-08T00:17:13;102052.92;;;17.81;74.83
77005;BME280;67261;53.132;18.006;2023-09-08T00:19:41;102050.64;;;17.80;74.94
77005;BME280;67261;53.132;18.006;2023-09-08T00:22:18;102047.73;;;17.79;74.98
77005;BME280;67261;53.132;18.006;2023-09-08T00:24:45;102045.23;;;17.76;74.82
77005;BME280;67261;53.132;18.006;2023-09-08T00:27:13;102041.75;;;17.72;74.89
77005;BME280;67261;53.132;18.006;2023-09-08T00:29:40;102038.50;;;17.67;74.95
77005;BME280;67261;53.132;18.006;2023-09-08T00:32:07;102043.16;;;17.69;75.03
77005;BME280;67261;53.132;18.006;2023-09-08T00:34:36;102044.48;;;17.67;75.28
77005;BME280;67261;53.132;18.006;2023-09-08T00:37:03;102042.99;;;17.64;75.18
77005;BME280;67261;53.132;18.006;2023-09-08T00:39:38;102041.52;;;17.59;75.35
77005;BME280;67261;53.132;18.006;2023-09-08T00:42:08;102044.81;;;17.60;75.45
77005;BME280;67261;53.132;18.006;2023-09-08T00:44:37;102048.73;;;17.57;75.39
77005;BME280;67261;53.132;18.006;2023-09-08T00:47:04;102054.55;;;17.55;75.48
77005;BME280;67261;53.132;18.006;2023-09-08T00:49:32;102053.33;;;17.51;75.64
77005;BME280;67261;53.132;18.006;2023-09-08T00:52:00;102056.23;;;17.49;75.65
77005;BME280;67261;53.132;18.006;2023-09-08T00:54:29;102050.73;;;17.47;75.61
77005;BME280;67261;53.132;18.006;2023-09-08T00:56:57;102046.17;;;17.41;75.69
77005;BME280;67261;53.132;18.006;2023-09-08T00:59:25;102053.59;;;17.42;75.83
77005;BME280;67261;53.132;18.006;2023-09-08T01:01:53;102049.36;;;17.40;75.87
77005;BME280;67261;53.132;18.006;2023-09-08T01:04:20;102052.17;;;17.37;76.15
77005;BME280;67261;53.132;18.006;2023-09-08T01:06:48;102045.99;;;17.35;76.06
77005;BME280;67261;53.132;18.006;2023-09-08T01:09:17;102046.16;;;17.33;76.25
77005;BME280;67261;53.132;18.006;2023-09-08T01:11:46;102046.16;;;17.31;76.55
77005;BME280;67261;53.132;18.006;2023-09-08T01:14:19;102045.48;;;17.30;76.61
77005;BME280;67261;53.132;18.006;2023-09-08T01:16:47;102043.86;;;17.28;76.85
77005;BME280;67261;53.132;18.006;2023-09-08T01:19:16;102047.69;;;17.26;76.81
77005;BME280;67261;53.132;18.006;2023-09-08T01:21:58;102047.28;;;17.25;77.07
77005;BME280;67261;53.132;18.006;2023-09-08T01:27:24;102042.83;;;17.21;77.03
77005;BME280;67261;53.132;18.006;2023-09-08T01:29:56;102045.66;;;17.20;77.03
77005;BME280;67261;53.132;18.006;2023-09-08T01:32:24;102039.89;;;17.19;77.20
77005;BME280;67261;53.132;18.006;2023-09-08T01:34:52;102039.73;;;17.18;77.12
77005;BME280;67261;53.132;18.006;2023-09-08T01:37:22;102040.09;;;17.17;77.34
77005;BME280;67261;53.132;18.006;2023-09-08T01:39:51;102031.39;;;17.09;77.36
77005;BME280;67261;53.132;18.006;2023-09-08T01:42:19;102037.19;;;17.12;77.70
77005;BME280;67261;53.132;18.006;2023-09-08T01:44:46;102037.86;;;17.10;77.65
77005;BME280;67261;53.132;18.006;2023-09-08T01:47:14;102033.67;;;17.09;77.57
77005;BME280;67261;53.132;18.006;2023-09-08T01:49:41;102031.69;;;17.08;77.65
77005;BME280;67261;53.132;18.006;2023-09-08T01:52:08;102031.61;;;17.05;77.62
77005;BME280;67261;53.132;18.006;2023-09-08T01:54:36;102033.99;;;17.03;77.68
77005;BME280;67261;53.132;18.006;2023-09-08T01:57:03;102032.71;;;17.02;77.79
77005;BME280;67261;53.132;18.006;2023-09-08T01:59:31;102030.39;;;16.99;77.85
77005;BME280;67261;53.132;18.006;2023-09-08T02:01:58;102030.48;;;16.96;77.91
77005;BME280;67261;53.132;18.006;2023-09-08T02:04:25;102031.75;;;16.94;77.81
77005;BME280;67261;53.132;18.006;2023-09-08T02:06:53;102027.91;;;16.92;77.74
77005;BME280;67261;53.132;18.006;2023-09-08T02:09:20;102027.62;;;16.91;78.08
77005;BME280;67261;53.132;18.006;2023-09-08T02:11:47;102030.41;;;16.90;78.02
77005;BME280;67261;53.132;18.006;2023-09-08T02:14:16;102030.59;;;16.87;78.04
77005;BME280;67261;53.132;18.006;2023-09-08T02:16:47;102029.27;;;16.82;78.12
77005;BME280;67261;53.132;18.006;2023-09-08T02:19:17;102030.61;;;16.83;78.51
77005;BME280;67261;53.132;18.006;2023-09-08T02:21:44;102031.72;;;16.83;78.28
77005;BME280;67261;53.132;18.006;2023-09-08T02:24:14;102028.04;;;16.82;78.45
77005;BME280;67261;53.132;18.006;2023-09-08T02:26:41;102030.77;;;16.80;78.47
77005;BME280;67261;53.132;18.006;2023-09-08T02:29:09;102032.27;;;16.78;78.51
77005;BME280;67261;53.132;18.006;2023-09-08T02:31:37;102028.73;;;16.78;78.40
77005;BME280;67261;53.132;18.006;2023-09-08T02:34:05;102030.01;;;16.77;78.62
77005;BME280;67261;53.132;18.006;2023-09-08T02:36:32;102025.92;;;16.77;78.55
77005;BME280;67261;53.132;18.006;2023-09-08T02:39:01;102023.41;;;16.77;78.56
77005;BME280;67261;53.132;18.006;2023-09-08T02:41:28;102026.52;;;16.77;78.69
77005;BME280;67261;53.132;18.006;2023-09-08T02:43:58;102024.72;;;16.75;78.64
77005;BME280;67261;53.132;18.006;2023-09-08T02:46:25;102024.87;;;16.74;78.74
77005;BME280;67261;53.132;18.006;2023-09-08T02:48:52;102019.92;;;16.73;78.54
77005;BME280;67261;53.132;18.006;2023-09-08T02:51:19;102016.79;;;16.71;78.54
77005;BME280;67261;53.132;18.006;2023-09-08T02:53:47;102015.63;;;16.66;78.85
77005;BME280;67261;53.132;18.006;2023-09-08T02:56:14;102018.10;;;16.65;78.76
77005;BME280;67261;53.132;18.006;2023-09-08T02:58:41;102015.20;;;16.62;78.90
77005;BME280;67261;53.132;18.006;2023-09-08T03:01:11;102013.48;;;16.59;78.96
77005;BME280;67261;53.132;18.006;2023-09-08T03:03:42;102011.73;;;16.57;79.09
77005;BME280;67261;53.132;18.006;2023-09-08T03:06:10;102010.01;;;16.55;79.02
77005;BME280;67261;53.132;18.006;2023-09-08T03:08:39;102009.64;;;16.53;78.99
77005;BME280;67261;53.132;18.006;2023-09-08T03:11:07;101998.20;;;16.47;79.04
77005;BME280;67261;53.132;18.006;2023-09-08T03:13:35;102004.31;;;16.50;79.20
77005;BME280;67261;53.132;18.006;2023-09-08T03:16:07;102007.11;;;16.47;79.13
77005;BME280;67261;53.132;18.006;2023-09-08T03:18:35;102005.05;;;16.44;79.11
77005;BME280;67261;53.132;18.006;2023-09-08T03:21:04;102003.77;;;16.43;79.18
77005;BME280;67261;53.132;18.006;2023-09-08T03:23:36;102000.11;;;16.42;79.30
77005;BME280;67261;53.132;18.006;2023-09-08T03:26:05;102002.48;;;16.40;79.27
77005;BME280;67261;53.132;18.006;2023-09-08T03:28:33;101999.62;;;16.39;79.42
77005;BME280;67261;53.132;18.006;2023-09-08T03:31:04;101998.79;;;16.38;79.37
77005;BME280;67261;53.132;18.006;2023-09-08T03:33:33;102003.05;;;16.37;79.38
77005;BME280;67261;53.132;18.006;2023-09-08T03:36:00;102003.23;;;16.35;79.48
77005;BME280;67261;53.132;18.006;2023-09-08T03:38:29;102003.11;;;16.31;79.76
77005;BME280;67261;53.132;18.006;2023-09-08T03:41:00;102003.59;;;16.28;79.93
77005;BME280;67261;53.132;18.006;2023-09-08T03:43:27;102004.25;;;16.25;79.89
77005;BME280;67261;53.132;18.006;2023-09-08T03:45:54;102000.41;;;16.21;79.97
77005;BME280;67261;53.132;18.006;2023-09-08T03:48:23;102001.32;;;16.15;80.04
77005;BME280;67261;53.132;18.006;2023-09-08T03:50:49;102000.73;;;16.12;80.03
77005;BME280;67261;53.132;18.006;2023-09-08T03:53:17;102006.35;;;16.11;80.22
77005;BME280;67261;53.132;18.006;2023-09-08T03:55:44;102002.77;;;16.12;80.10
77005;BME280;67261;53.132;18.006;2023-09-08T03:58:11;102003.81;;;16.12;80.20
77005;BME280;67261;53.132;18.006;2023-09-08T04:00:40;102002.39;;;16.12;80.09
77005;BME280;67261;53.132;18.006;2023-09-08T04:03:08;101996.71;;;16.08;80.19
77005;BME280;67261;53.132;18.006;2023-09-08T04:05:36;102005.60;;;16.10;80.00
77005;BME280;67261;53.132;18.006;2023-09-08T04:08:03;102004.55;;;16.08;79.95
77005;BME280;67261;53.132;18.006;2023-09-08T04:10:32;102006.54;;;16.11;79.87
77005;BME280;67261;53.132;18.006;2023-09-08T04:13:00;102004.71;;;16.12;79.86
77005;BME280;67261;53.132;18.006;2023-09-08T04:15:27;102004.73;;;16.12;79.72
77005;BME280;67261;53.132;18.006;2023-09-08T04:17:56;102006.23;;;16.13;79.79
77005;BME280;67261;53.132;18.006;2023-09-08T04:20:24;102008.76;;;16.16;79.78
77005;BME280;67261;53.132;18.006;2023-09-08T04:22:52;102007.47;;;16.20;79.69
77005;BME280;67261;53.132;18.006;2023-09-08T04:25:19;102004.58;;;16.24;79.60
77005;BME280;67261;53.132;18.006;2023-09-08T04:27:47;101999.41;;;16.24;79.76
77005;BME280;67261;53.132;18.006;2023-09-08T04:30:15;102003.51;;;16.29;79.53
77005;BME280;67261;53.132;18.006;2023-09-08T04:32:42;101998.35;;;16.29;79.41
77005;BME280;67261;53.132;18.006;2023-09-08T04:35:10;102004.80;;;16.42;79.49
77005;BME280;67261;53.132;18.006;2023-09-08T04:37:41;102003.05;;;16.82;78.82
77005;BME280;67261;53.132;18.006;2023-09-08T04:40:09;101998.19;;;17.35;77.82
77005;BME280;67261;53.132;18.006;2023-09-08T04:42:37;101998.13;;;17.89;76.67
77005;BME280;67261;53.132;18.006;2023-09-08T04:45:04;102001.54;;;18.41;75.45
77005;BME280;67261;53.132;18.006;2023-09-08T04:47:32;102000.90;;;18.90;74.22
77005;BME280;67261;53.132;18.006;2023-09-08T04:49:59;102002.85;;;19.26;73.49
77005;BME280;67261;53.132;18.006;2023-09-08T04:52:27;102004.70;;;19.22;73.19
77005;BME280;67261;53.132;18.006;2023-09-08T04:54:54;102006.59;;;19.06;73.26
77005;BME280;67261;53.132;18.006;2023-09-08T04:57:25;102005.29;;;19.05;73.20
77005;BME280;67261;53.132;18.006;2023-09-08T04:59:57;101999.45;;;19.36;72.55
77005;BME280;67261;53.132;18.006;2023-09-08T05:02:24;102003.63;;;19.99;71.33
77005;BME280;67261;53.132;18.006;2023-09-08T05:04:51;101999.02;;;20.75;69.80
77005;BME280;67261;53.132;18.006;2023-09-08T05:07:18;101998.90;;;21.50;68.16
77005;BME280;67261;53.132;18.006;2023-09-08T05:09:46;101998.86;;;22.16;66.58
77005;BME280;67261;53.132;18.006;2023-09-08T05:12:13;101999.48;;;22.70;65.64
77005;BME280;67261;53.132;18.006;2023-09-08T05:14:40;101997.89;;;23.30;64.74
77005;BME280;67261;53.132;18.006;2023-09-08T05:17:08;101994.67;;;23.89;63.61
77005;BME280;67261;53.132;18.006;2023-09-08T05:19:36;102001.33;;;24.57;62.27
77005;BME280;67261;53.132;18.006;2023-09-08T05:22:05;102001.88;;;25.19;60.78
77005;BME280;67261;53.132;18.006;2023-09-08T05:24:33;102002.23;;;25.59;59.88
77005;BME280;67261;53.132;18.006;2023-09-08T05:27:01;101996.84;;;26.19;58.86
77005;BME280;67261;53.132;18.006;2023-09-08T05:29:28;101998.77;;;26.54;56.51
77005;BME280;67261;53.132;18.006;2023-09-08T05:31:56;102001.26;;;26.83;56.49
77005;BME280;67261;53.132;18.006;2023-09-08T05:34:25;101997.86;;;27.08;55.28
77005;BME280;67261;53.132;18.006;2023-09-08T05:36:53;101995.39;;;27.29;54.78
77005;BME280;67261;53.132;18.006;2023-09-08T05:39:20;101996.66;;;27.58;53.80
77005;BME280;67261;53.132;18.006;2023-09-08T05:41:48;101998.14;;;27.82;53.00
77005;BME280;67261;53.132;18.006;2023-09-08T05:44:16;102001.23;;;28.16;52.01
77005;BME280;67261;53.132;18.006;2023-09-08T05:46:43;102002.66;;;28.63;51.31
77005;BME280;67261;53.132;18.006;2023-09-08T05:49:11;102001.48;;;28.91;50.18
77005;BME280;67261;53.132;18.006;2023-09-08T05:51:38;102004.65;;;29.05;49.17
77005;BME280;67261;53.132;18.006;2023-09-08T05:54:06;101999.01;;;29.34;48.42
77005;BME280;67261;53.132;18.006;2023-09-08T05:56:34;102005.39;;;29.65;47.32
77005;BME280;67261;53.132;18.006;2023-09-08T05:59:01;101999.18;;;30.00;46.43
77005;BME280;67261;53.132;18.006;2023-09-08T06:01:30;101996.48;;;30.37;45.65
77005;BME280;67261;53.132;18.006;2023-09-08T06:03:58;101998.86;;;30.74;44.75
77005;BME280;67261;53.132;18.006;2023-09-08T06:06:27;102000.73;;;30.60;44.14
77005;BME280;67261;53.132;18.006;2023-09-08T06:08:55;101999.10;;;30.37;43.33
77005;BME280;67261;53.132;18.006;2023-09-08T06:11:24;101991.70;;;30.49;43.19
77005;BME280;67261;53.132;18.006;2023-09-08T06:13:52;101994.70;;;31.10;42.43
77005;BME280;67261;53.132;18.006;2023-09-08T06:16:23;101987.29;;;31.61;41.43
77005;BME280;67261;53.132;18.006;2023-09-08T06:18:50;101985.11;;;32.01;40.70
77005;BME280;67261;53.132;18.006;2023-09-08T06:21:19;101986.29;;;32.47;39.84
77005;BME280;67261;53.132;18.006;2023-09-08T06:23:47;101981.25;;;32.78;38.88
77005;BME280;67261;53.132;18.006;2023-09-08T06:26:16;101981.42;;;32.80;37.99
77005;BME280;67261;53.132;18.006;2023-09-08T06:28:44;101977.55;;;32.71;37.38
77005;BME280;67261;53.132;18.006;2023-09-08T06:31:11;101975.63;;;32.74;37.13
77005;BME280;67261;53.132;18.006;2023-09-08T06:33:40;101974.05;;;32.63;36.92
77005;BME280;67261;53.132;18.006;2023-09-08T06:36:07;101971.39;;;32.58;36.70
77005;BME280;67261;53.132;18.006;2023-09-08T06:38:35;101967.77;;;32.61;36.58
77005;BME280;67261;53.132;18.006;2023-09-08T06:41:12;101974.61;;;32.81;36.58
77005;BME280;67261;53.132;18.006;2023-09-08T06:43:40;101979.06;;;33.10;36.02
77005;BME280;67261;53.132;18.006;2023-09-08T06:46:14;101978.50;;;33.31;35.29
77005;BME280;67261;53.132;18.006;2023-09-08T06:48:42;101976.90;;;33.36;35.13
77005;BME280;67261;53.132;18.006;2023-09-08T06:51:10;101980.48;;;33.57;34.96
77005;BME280;67261;53.132;18.006;2023-09-08T06:53:38;101980.48;;;33.74;34.80
77005;BME280;67261;53.132;18.006;2023-09-08T06:56:05;101980.30;;;33.84;34.35
77005;BME280;67261;53.132;18.006;2023-09-08T06:58:33;101977.35;;;33.93;34.33
77005;BME280;67261;53.132;18.006;2023-09-08T07:01:01;101978.50;;;34.03;33.90
77005;BME280;67261;53.132;18.006;2023-09-08T07:03:29;101975.10;;;33.96;33.73
77005;BME280;67261;53.132;18.006;2023-09-08T07:06:04;101971.09;;;34.11;33.71
77005;BME280;67261;53.132;18.006;2023-09-08T07:08:36;101960.77;;;34.32;33.09
77005;BME280;67261;53.132;18.006;2023-09-08T07:11:03;101963.42;;;34.53;32.80
77005;BME280;67261;53.132;18.006;2023-09-08T07:13:31;101962.02;;;34.48;32.70
77005;BME280;67261;53.132;18.006;2023-09-08T07:15:58;101959.44;;;34.69;32.82
77005;BME280;67261;53.132;18.006;2023-09-08T07:18:27;101959.98;;;34.79;32.16
77005;BME280;67261;53.132;18.006;2023-09-08T07:20:56;101959.33;;;34.57;31.83
77005;BME280;67261;53.132;18.006;2023-09-08T07:23:23;101961.88;;;34.57;32.47
77005;BME280;67261;53.132;18.006;2023-09-08T07:25:51;101960.83;;;34.69;31.94
77005;BME280;67261;53.132;18.006;2023-09-08T07:28:22;101963.41;;;34.57;32.10
77005;BME280;67261;53.132;18.006;2023-09-08T07:30:49;101960.78;;;34.42;32.10
77005;BME280;67261;53.132;18.006;2023-09-08T07:33:16;101956.70;;;34.28;32.06
77005;BME280;67261;53.132;18.006;2023-09-08T07:35:44;101959.40;;;34.53;31.95
77005;BME280;67261;53.132;18.006;2023-09-08T07:38:11;101959.84;;;34.55;31.94
77005;BME280;67261;53.132;18.006;2023-09-08T07:40:42;101963.04;;;34.54;31.85
77005;BME280;67261;53.132;18.006;2023-09-08T07:43:30;101964.00;;;34.58;31.89
77005;BME280;67261;53.132;18.006;2023-09-08T07:45:58;101961.70;;;34.56;31.82
77005;BME280;67261;53.132;18.006;2023-09-08T07:48:25;101962.49;;;34.54;31.92
77005;BME280;67261;53.132;18.006;2023-09-08T07:50:52;101959.44;;;34.47;31.85
77005;BME280;67261;53.132;18.006;2023-09-08T07:53:19;101953.75;;;34.47;31.83
77005;BME280;67261;53.132;18.006;2023-09-08T07:55:46;101957.02;;;34.29;32.26
77005;BME280;67261;53.132;18.006;2023-09-08T07:58:13;101960.29;;;33.88;32.53
77005;BME280;67261;53.132;18.006;2023-09-08T08:00:40;101959.11;;;33.50;32.91
77005;BME280;67261;53.132;18.006;2023-09-08T08:03:07;101959.75;;;33.08;33.59
77005;BME280;67261;53.132;18.006;2023-09-08T08:05:35;101958.98;;;32.67;33.91
77005;BME280;67261;53.132;18.006;2023-09-08T08:08:03;101953.96;;;32.34;34.50
77005;BME280;67261;53.132;18.006;2023-09-08T08:10:32;101960.08;;;32.21;35.02
77005;BME280;67261;53.132;18.006;2023-09-08T08:12:59;101959.40;;;32.03;35.19
77005;BME280;67261;53.132;18.006;2023-09-08T08:15:37;101955.03;;;31.72;35.62
77005;BME280;67261;53.132;18.006;2023-09-08T08:18:06;101954.64;;;31.45;35.95
77005;BME280;67261;53.132;18.006;2023-09-08T08:20:34;101952.48;;;31.28;36.72
77005;BME280;67261;53.132;18.006;2023-09-08T08:23:03;101951.85;;;31.07;36.73
77005;BME280;67261;53.132;18.006;2023-09-08T08:25:31;101953.11;;;30.73;37.03
77005;BME280;67261;53.132;18.006;2023-09-08T08:27:59;101949.98;;;30.35;37.78
77005;BME280;67261;53.132;18.006;2023-09-08T08:30:32;101949.45;;;30.01;38.26
77005;BME280;67261;53.132;18.006;2023-09-08T08:33:01;101944.86;;;29.72;38.59
77005;BME280;67261;53.132;18.006;2023-09-08T08:35:29;101950.52;;;29.52;38.92
77005;BME280;67261;53.132;18.006;2023-09-08T08:37:58;101953.64;;;29.30;39.54
77005;BME280;67261;53.132;18.006;2023-09-08T08:40:26;101949.10;;;29.13;39.91
77005;BME280;67261;53.132;18.006;2023-09-08T08:42:56;101944.56;;;28.97;40.01
77005;BME280;67261;53.132;18.006;2023-09-08T08:45:29;101941.19;;;28.80;40.54
77005;BME280;67261;53.132;18.006;2023-09-08T08:47:57;101937.96;;;28.62;40.73
77005;BME280;67261;53.132;18.006;2023-09-08T08:50:24;101935.55;;;28.53;41.12
77005;BME280;67261;53.132;18.006;2023-09-08T08:52:52;101934.63;;;28.48;41.01
77005;BME280;67261;53.132;18.006;2023-09-08T08:55:23;101934.80;;;28.40;41.38
77005;BME280;67261;53.132;18.006;2023-09-08T08:57:52;101932.64;;;28.34;41.51
77005;BME280;67261;53.132;18.006;2023-09-08T09:00:20;101933.36;;;28.26;41.33
77005;BME280;67261;53.132;18.006;2023-09-08T09:02:48;101933.43;;;28.19;41.89
77005;BME280;67261;53.132;18.006;2023-09-08T09:05:19;101931.70;;;28.17;41.94
77005;BME280;67261;53.132;18.006;2023-09-08T09:07:47;101929.03;;;28.18;42.04
77005;BME280;67261;53.132;18.006;2023-09-08T09:10:15;101928.65;;;28.25;41.80
77005;BME280;67261;53.132;18.006;2023-09-08T09:12:43;101926.61;;;28.29;41.67
77005;BME280;67261;53.132;18.006;2023-09-08T09:15:12;101929.69;;;28.33;41.58
77005;BME280;67261;53.132;18.006;2023-09-08T09:17:40;101927.44;;;28.32;40.88
77005;BME280;67261;53.132;18.006;2023-09-08T09:20:18;101925.65;;;28.27;40.69
77005;BME280;67261;53.132;18.006;2023-09-08T09:22:47;101927.12;;;28.10;40.50
77005;BME280;67261;53.132;18.006;2023-09-08T09:25:27;101921.88;;;27.99;40.61
77005;BME280;67261;53.132;18.006;2023-09-08T09:27:58;101922.52;;;27.95;40.95
77005;BME280;67261;53.132;18.006;2023-09-08T09:30:27;101921.81;;;27.95;40.96
77005;BME280;67261;53.132;18.006;2023-09-08T09:33:04;101919.88;;;27.95;41.06
77005;BME280;67261;53.132;18.006;2023-09-08T09:35:41;101914.27;;;27.90;40.93
77005;BME280;67261;53.132;18.006;2023-09-08T09:38:09;101910.16;;;27.87;40.43
77005;BME280;67261;53.132;18.006;2023-09-08T09:40:38;101910.68;;;27.86;40.80
77005;BME280;67261;53.132;18.006;2023-09-08T09:43:24;101911.08;;;27.89;40.75
77005;BME280;67261;53.132;18.006;2023-09-08T09:45:55;101905.08;;;27.92;40.41
77005;BME280;67261;53.132;18.006;2023-09-08T09:48:44;101902.46;;;27.90;40.27
77005;BME280;67261;53.132;18.006;2023-09-08T09:51:20;101902.27;;;27.89;40.51
77005;BME280;67261;53.132;18.006;2023-09-08T09:53:50;101903.80;;;27.91;40.42
77005;BME280;67261;53.132;18.006;2023-09-08T09:56:20;101906.57;;;27.88;40.07
77005;BME280;67261;53.132;18.006;2023-09-08T09:58:49;101901.88;;;27.85;39.90
77005;BME280;67261;53.132;18.006;2023-09-08T10:01:27;101896.85;;;27.87;39.87
77005;BME280;67261;53.132;18.006;2023-09-08T10:03:55;101895.31;;;27.84;39.86
77005;BME280;67261;53.132;18.006;2023-09-08T10:06:22;101888.17;;;27.82;40.09
77005;BME280;67261;53.132;18.006;2023-09-08T10:08:50;101889.86;;;27.82;40.02
77005;BME280;67261;53.132;18.006;2023-09-08T10:11:21;101888.02;;;27.83;39.81
77005;BME280;67261;53.132;18.006;2023-09-08T10:13:51;101884.30;;;27.80;39.46
77005;BME280;67261;53.132;18.006;2023-09-08T10:16:20;101886.34;;;27.77;39.74
77005;BME280;67261;53.132;18.006;2023-09-08T10:18:49;101883.01;;;27.74;39.65
77005;BME280;67261;53.132;18.006;2023-09-08T10:21:21;101882.32;;;27.75;39.88
77005;BME280;67261;53.132;18.006;2023-09-08T10:23:57;101881.70;;;27.76;39.71
77005;BME280;67261;53.132;18.006;2023-09-08T10:26:27;101878.16;;;27.79;39.49
77005;BME280;67261;53.132;18.006;2023-09-08T10:28:55;101875.77;;;27.77;39.29
77005;BME280;67261;53.132;18.006;2023-09-08T10:31:26;101873.63;;;27.74;39.56
77005;BME280;67261;53.132;18.006;2023-09-08T10:33:57;101873.88;;;27.75;39.53
77005;BME280;67261;53.132;18.006;2023-09-08T10:36:24;101872.55;;;27.74;39.43
77005;BME280;67261;53.132;18.006;2023-09-08T10:38:51;101870.92;;;27.73;39.41
77005;BME280;67261;53.132;18.006;2023-09-08T10:44:02;101866.36;;;27.69;39.58
77005;BME280;67261;53.132;18.006;2023-09-08T10:46:31;101866.93;;;27.65;39.23
77005;BME280;67261;53.132;18.006;2023-09-08T10:49:06;101862.80;;;27.68;39.12
77005;BME280;67261;53.132;18.006;2023-09-08T10:51:34;101868.98;;;27.68;38.98
77005;BME280;67261;53.132;18.006;2023-09-08T10:54:04;101859.49;;;27.65;38.76
77005;BME280;67261;53.132;18.006;2023-09-08T10:56:54;101858.20;;;27.63;38.85
77005;BME280;67261;53.132;18.006;2023-09-08T10:59:28;101861.77;;;27.63;39.21
77005;BME280;67261;53.132;18.006;2023-09-08T11:01:55;101859.63;;;27.65;38.92
77005;BME280;67261;53.132;18.006;2023-09-08T11:04:23;101854.82;;;27.62;38.84
77005;BME280;67261;53.132;18.006;2023-09-08T11:06:50;101854.05;;;27.60;38.83
77005;BME280;67261;53.132;18.006;2023-09-08T11:09:17;101852.92;;;27.58;39.02
77005;BME280;67261;53.132;18.006;2023-09-08T11:11:47;101851.14;;;27.50;38.85
77005;BME280;67261;53.132;18.006;2023-09-08T11:14:14;101847.58;;;27.38;38.74
77005;BME280;67261;53.132;18.006;2023-09-08T11:16:42;101845.59;;;27.35;39.08
77005;BME280;67261;53.132;18.006;2023-09-08T11:19:10;101839.85;;;27.35;39.11
77005;BME280;67261;53.132;18.006;2023-09-08T11:21:37;101841.38;;;27.36;39.17
77005;BME280;67261;53.132;18.006;2023-09-08T11:24:06;101841.53;;;27.39;38.95
77005;BME280;67261;53.132;18.006;2023-09-08T11:26:34;101838.26;;;27.39;39.05
77005;BME280;67261;53.132;18.006;2023-09-08T11:29:03;101835.47;;;27.38;39.02
77005;BME280;67261;53.132;18.006;2023-09-08T11:31:30;101838.13;;;27.39;38.95
77005;BME280;67261;53.132;18.006;2023-09-08T11:33:58;101831.92;;;27.42;38.85
77005;BME280;67261;53.132;18.006;2023-09-08T11:36:26;101834.24;;;27.46;38.66
77005;BME280;67261;53.132;18.006;2023-09-08T11:38:58;101827.73;;;27.49;38.87
77005;BME280;67261;53.132;18.006;2023-09-08T11:41:25;101829.98;;;27.53;38.92
77005;BME280;67261;53.132;18.006;2023-09-08T11:43:52;101830.37;;;27.52;38.67
77005;BME280;67261;53.132;18.006;2023-09-08T11:46:21;101833.04;;;27.55;38.50
77005;BME280;67261;53.132;18.006;2023-09-08T11:48:50;101830.28;;;27.54;38.55
77005;BME280;67261;53.132;18.006;2023-09-08T11:51:22;101826.41;;;27.53;38.42
77005;BME280;67261;53.132;18.006;2023-09-08T11:53:49;101826.90;;;27.52;38.22
77005;BME280;67261;53.132;18.006;2023-09-08T11:56:17;101824.02;;;27.50;38.00
77005;BME280;67261;53.132;18.006;2023-09-08T11:58:45;101820.39;;;27.48;38.12
77005;BME280;67261;53.132;18.006;2023-09-08T12:01:14;101815.91;;;27.43;38.00
77005;BME280;67261;53.132;18.006;2023-09-08T12:03:55;101815.82;;;27.41;38.09
77005;BME280;67261;53.132;18.006;2023-09-08T12:06:26;101814.21;;;27.43;38.22
77005;BME280;67261;53.132;18.006;2023-09-08T12:08:55;101812.70;;;27.48;38.24
77005;BME280;67261;53.132;18.006;2023-09-08T12:11:23;101812.04;;;27.50;38.12
77005;BME280;67261;53.132;18.006;2023-09-08T12:13:50;101803.77;;;27.48;38.04
77005;BME280;67261;53.132;18.006;2023-09-08T12:16:28;101806.95;;;27.49;38.24
77005;BME280;67261;53.132;18.006;2023-09-08T12:18:56;101804.85;;;27.48;37.95
77005;BME280;67261;53.132;18.006;2023-09-08T12:21:26;101800.09;;;27.46;37.88
77005;BME280;67261;53.132;18.006;2023-09-08T12:23:54;101796.81;;;27.43;37.91
77005;BME280;67261;53.132;18.006;2023-09-08T12:26:24;101794.19;;;27.40;37.85
77005;BME280;67261;53.132;18.006;2023-09-08T12:28:51;101795.02;;;27.41;38.20
77005;BME280;67261;53.132;18.006;2023-09-08T12:31:20;101791.19;;;27.43;38.36
77005;BME280;67261;53.132;18.006;2023-09-08T12:33:48;101794.78;;;27.45;38.29
77005;BME280;67261;53.132;18.006;2023-09-08T12:36:18;101789.83;;;27.45;38.59
77005;BME280;67261;53.132;18.006;2023-09-08T12:38:51;101789.63;;;27.44;38.88
77005;BME280;67261;53.132;18.006;2023-09-08T12:41:19;101787.92;;;27.43;38.95
77005;BME280;67261;53.132;18.006;2023-09-08T12:43:46;101785.58;;;27.50;39.19
77005;BME280;67261;53.132;18.006;2023-09-08T12:46:17;101784.34;;;27.53;38.89
77005;BME280;67261;53.132;18.006;2023-09-08T12:48:44;101781.50;;;27.51;38.80
77005;BME280;67261;53.132;18.006;2023-09-08T12:51:12;101777.88;;;27.50;38.87
77005;BME280;67261;53.132;18.006;2023-09-08T12:53:39;101771.36;;;27.46;38.65
77005;BME280;67261;53.132;18.006;2023-09-08T12:56:06;101773.02;;;27.49;38.89